sensor_id;sensor_type;location;lat;lon;timestamp;temperature;humidity
58566;DHT22;47788;46.172;-1.158;2022-09-01T00:01:29;21.60;99.90
58566;DHT22;47788;46.172;-1.158;2022-09-01T00:03:56;21.70;99.90
58566;DHT22;47788;46.172;-1.158;2022-09-01T00:06:28;21.70;99.90
58566;DHT22;47788;46.172;-1.158;2022-09-01T00:08:56;21.60;99.90
58566;DHT22;47788;46.172;-1.158;2022-09-01T00:11:23;21.60;99.90
58566;DHT22;47788;46.172;-1.158;2022-09-01T00:13:50;21.50;99.90
58566;DHT22;47788;46.172;-1.158;2022-09-01T00:16:17;21.50;99.90
58566;DHT22;47788;46.172;-1.158;2022-09-01T00:18:44;21.50;99.90
58566;DHT22;47788;46.172;-1.158;2022-09-01T00:21:11;21.60;99.90
58566;DHT22;47788;46.172;-1.158;2022-09-01T00:23:37;21.60;99.90
58566;DHT22;47788;46.172;-1.158;2022-09-01T00:26:03;21.60;99.90
58566;DHT22;47788;46.172;-1.158;2022-09-01T00:28:32;21.60;99.90
58566;DHT22;47788;46.172;-1.158;2022-09-01T00:30:58;21.60;99.90
58566;DHT22;47788;46.172;-1.158;2022-09-01T00:33:24;21.60;99.90
58566;DHT22;47788;46.172;-1.158;2022-09-01T00:35:49;21.70;99.90
58566;DHT22;47788;46.172;-1.158;2022-09-01T00:38:15;21.70;99.90
58566;DHT22;47788;46.172;-1.158;2022-09-01T00:40:40;21.60;99.90
58566;DHT22;47788;46.172;-1.158;2022-09-01T00:43:45;21.70;99.90
58566;DHT22;47788;46.172;-1.158;2022-09-01T00:46:21;21.60;99.90
58566;DHT22;47788;46.172;-1.158;2022-09-01T00:48:59;21.60;99.90
58566;DHT22;47788;46.172;-1.158;2022-09-01T00:51:27;21.60;99.90
58566;DHT22;47788;46.172;-1.158;2022-09-01T00:53:53;21.60;99.90
58566;DHT22;47788;46.172;-1.158;2022-09-01T00:56:20;21.60;99.90
58566;DHT22;47788;46.172;-1.158;2022-09-01T00:58:46;21.60;99.90
58566;DHT22;47788;46.172;-1.158;2022-09-01T01:01:13;21.50;99.90
58566;DHT22;47788;46.172;-1.158;2022-09-01T01:03:39;21.50;99.90
58566;DHT22;47788;46.172;-1.158;2022-09-01T01:06:09;21.50;99.90
58566;DHT22;47788;46.172;-1.158;2022-09-01T01:08:37;21.50;99.90
58566;DHT22;47788;46.172;-1.158;2022-09-01T01:11:10;21.60;99.90
58566;DHT22;47788;46.172;-1.158;2022-09-01T01:16:27;21.60;99.90
58566;DHT22;47788;46.172;-1.158;2022-09-01T01:18:53;21.50;99.90
58566;DHT22;47788;46.172;-1.158;2022-09-01T01:21:28;21.60;99.90
58566;DHT22;47788;46.172;-1.158;2022-09-01T01:24:26;21.50;99.90
58566;DHT22;47788;46.172;-1.158;2022-09-01T01:26:53;21.50;99.90
58566;DHT22;47788;46.172;-1.158;2022-09-01T01:29:33;21.50;99.90
58566;DHT22;47788;46.172;-1.158;2022-09-01T01:32:02;21.40;99.90
58566;DHT22;47788;46.172;-1.158;2022-09-01T01:34:29;21.50;99.90
58566;DHT22;47788;46.172;-1.158;2022-09-01T01:36:56;21.40;99.90
58566;DHT22;47788;46.172;-1.158;2022-09-01T01:39:24;21.30;99.90
58566;DHT22;47788;46.172;-1.158;2022-09-01T01:41:52;21.30;99.90
58566;DHT22;47788;46.172;-1.158;2022-09-01T01:44:24;21.20;99.90
58566;DHT22;47788;46.172;-1.158;2022-09-01T01:46:53;21.20;99.90
58566;DHT22;47788;46.172;-1.158;2022-09-01T01:49:22;21.20;99.90
58566;DHT22;47788;46.172;-1.158;2022-09-01T01:51:49;21.30;99.90
58566;DHT22;47788;46.172;-1.158;2022-09-01T01:54:23;21.30;99.90
58566;DHT22;47788;46.172;-1.158;2022-09-01T01:56:50;21.20;99.90
58566;DHT22;47788;46.172;-1.158;2022-09-01T01:59:16;21.20;99.90
58566;DHT22;47788;46.172;-1.158;2022-09-01T02:01:43;21.20;99.90
58566;DHT22;47788;46.172;-1.158;2022-09-01T02:04:16;21.20;99.90
58566;DHT22;47788;46.172;-1.158;2022-09-01T02:06:43;21.20;99.90
58566;DHT22;47788;46.172;-1.158;2022-09-01T02:09:13;21.10;99.90
58566;DHT22;47788;46.172;-1.158;2022-09-01T02:11:39;21.10;99.90
58566;DHT22;47788;46.172;-1.158;2022-09-01T02:14:07;21.10;99.90
58566;DHT22;47788;46.172;-1.158;2022-09-01T02:16:34;21.10;99.90
58566;DHT22;47788;46.172;-1.158;2022-09-01T02:19:01;21.10;99.90
58566;DHT22;47788;46.172;-1.158;2022-09-01T02:21:28;21.10;99.90
58566;DHT22;47788;46.172;-1.158;2022-09-01T02:24:00;21.10;99.90
58566;DHT22;47788;46.172;-1.158;2022-09-01T02:26:44;21.10;99.90
58566;DHT22;47788;46.172;-1.158;2022-09-01T02:29:18;21.20;99.90
58566;DHT22;47788;46.172;-1.158;2022-09-01T02:31:47;21.20;99.90
58566;DHT22;47788;46.172;-1.158;2022-09-01T02:34:14;21.20;99.90
58566;DHT22;47788;46.172;-1.158;2022-09-01T02:36:41;21.10;99.90
58566;DHT22;47788;46.172;-1.158;2022-09-01T02:39:13;21.20;99.90
58566;DHT22;47788;46.172;-1.158;2022-09-01T02:41:39;21.20;99.90
58566;DHT22;47788;46.172;-1.158;2022-09-01T02:44:05;21.30;99.90
58566;DHT22;47788;46.172;-1.158;2022-09-01T02:46:43;21.30;99.90
58566;DHT22;47788;46.172;-1.158;2022-09-01T02:49:11;21.20;99.90
58566;DHT22;47788;46.172;-1.158;2022-09-01T02:51:44;21.20;99.90
58566;DHT22;47788;46.172;-1.158;2022-09-01T02:54:11;21.20;99.90
58566;DHT22;47788;46.172;-1.158;2022-09-01T02:56:46;21.20;99.90
58566;DHT22;47788;46.172;-1.158;2022-09-01T02:59:13;21.30;99.90
58566;DHT22;47788;46.172;-1.158;2022-09-01T03:01:40;21.20;99.90
58566;DHT22;47788;46.172;-1.158;2022-09-01T03:04:07;21.20;99.90
58566;DHT22;47788;46.172;-1.158;2022-09-01T03:06:37;21.10;99.90
58566;DHT22;47788;46.172;-1.158;2022-09-01T03:09:08;21.10;99.90
58566;DHT22;47788;46.172;-1.158;2022-09-01T03:11:37;21.00;99.90
58566;DHT22;47788;46.172;-1.158;2022-09-01T03:14:04;21.00;99.90
58566;DHT22;47788;46.172;-1.158;2022-09-01T03:16:30;21.00;99.90
58566;DHT22;47788;46.172;-1.158;2022-09-01T03:18:56;21.10;99.90
58566;DHT22;47788;46.172;-1.158;2022-09-01T03:21:22;21.10;99.90
58566;DHT22;47788;46.172;-1.158;2022-09-01T03:23:50;21.20;99.90
58566;DHT22;47788;46.172;-1.158;2022-09-01T03:26:18;21.20;99.90
58566;DHT22;47788;46.172;-1.158;2022-09-01T03:28:45;21.20;99.90
58566;DHT22;47788;46.172;-1.158;2022-09-01T03:31:11;21.20;99.90
58566;DHT22;47788;46.172;-1.158;2022-09-01T03:33:37;21.20;99.90
58566;DHT22;47788;46.172;-1.158;2022-09-01T03:36:04;21.30;99.90
58566;DHT22;47788;46.172;-1.158;2022-09-01T03:38:30;21.20;99.90
58566;DHT22;47788;46.172;-1.158;2022-09-01T03:41:04;21.20;99.90
58566;DHT22;47788;46.172;-1.158;2022-09-01T03:43:33;21.20;99.90
58566;DHT22;47788;46.172;-1.158;2022-09-01T03:45:59;21.20;99.90
58566;DHT22;47788;46.172;-1.158;2022-09-01T03:48:29;21.20;99.90
58566;DHT22;47788;46.172;-1.158;2022-09-01T03:50:57;21.20;99.90
58566;DHT22;47788;46.172;-1.158;2022-09-01T03:53:27;21.20;99.90
58566;DHT22;47788;46.172;-1.158;2022-09-01T03:55:53;21.10;99.90
58566;DHT22;47788;46.172;-1.158;2022-09-01T03:58:20;21.10;99.90
58566;DHT22;47788;46.172;-1.158;2022-09-01T04:00:49;21.20;99.90
58566;DHT22;47788;46.172;-1.158;2022-09-01T04:03:16;21.20;99.90
58566;DHT22;47788;46.172;-1.158;2022-09-01T04:05:46;21.20;99.90
58566;DHT22;47788;46.172;-1.158;2022-09-01T04:08:12;21.20;99.90
58566;DHT22;47788;46.172;-1.158;2022-09-01T04:10:44;21.20;99.90
58566;DHT22;47788;46.172;-1.158;2022-09-01T04:13:35;21.20;99.90
58566;DHT22;47788;46.172;-1.158;2022-09-01T04:16:01;21.20;99.90
58566;DHT22;47788;46.172;-1.158;2022-09-01T04:18:26;21.20;99.90
58566;DHT22;47788;46.172;-1.158;2022-09-01T04:20:55;21.20;99.90
58566;DHT22;47788;46.172;-1.158;2022-09-01T04:23:25;21.20;99.90
58566;DHT22;47788;46.172;-1.158;2022-09-01T04:25:53;21.20;99.90
58566;DHT22;47788;46.172;-1.158;2022-09-01T04:28:21;21.20;99.90
58566;DHT22;47788;46.172;-1.158;2022-09-01T04:30:54;21.10;99.90
58566;DHT22;47788;46.172;-1.158;2022-09-01T04:33:22;21.20;99.90
58566;DHT22;47788;46.172;-1.158;2022-09-01T04:35:49;21.20;99.90
58566;DHT22;47788;46.172;-1.158;2022-09-01T04:38:20;21.20;99.90
58566;DHT22;47788;46.172;-1.158;2022-09-01T04:40:46;21.10;99.90
58566;DHT22;47788;46.172;-1.158;2022-09-01T04:43:13;21.20;99.90
58566;DHT22;47788;46.172;-1.158;2022-09-01T04:45:40;21.10;99.90
58566;DHT22;47788;46.172;-1.158;2022-09-01T04:48:07;21.20;99.90
58566;DHT22;47788;46.172;-1.158;2022-09-01T04:50:33;21.20;99.90
58566;DHT22;47788;46.172;-1.158;2022-09-01T04:53:03;21.10;99.90
58566;DHT22;47788;46.172;-1.158;2022-09-01T04:55:30;21.20;99.90
58566;DHT22;47788;46.172;-1.158;2022-09-01T04:57:58;21.10;99.90
58566;DHT22;47788;46.172;-1.158;2022-09-01T05:00:25;21.10;99.90
58566;DHT22;47788;46.172;-1.158;2022-09-01T05:02:57;21.10;99.90
58566;DHT22;47788;46.172;-1.158;2022-09-01T05:05:39;21.10;99.90
58566;DHT22;47788;46.172;-1.158;2022-09-01T05:08:11;21.00;99.90
58566;DHT22;47788;46.172;-1.158;2022-09-01T05:10:44;21.00;99.90
58566;DHT22;47788;46.172;-1.158;2022-09-01T05:13:13;21.00;99.90
58566;DHT22;47788;46.172;-1.158;2022-09-01T05:15:43;21.00;99.90
58566;DHT22;47788;46.172;-1.158;2022-09-01T05:18:16;21.00;99.90
58566;DHT22;47788;46.172;-1.158;2022-09-01T05:20:48;20.90;99.90
58566;DHT22;47788;46.172;-1.158;2022-09-01T05:23:15;20.90;99.90
58566;DHT22;47788;46.172;-1.158;2022-09-01T05:25:46;20.90;99.90
58566;DHT22;47788;46.172;-1.158;2022-09-01T05:28:14;20.90;99.90
58566;DHT22;47788;46.172;-1.158;2022-09-01T05:30:40;20.90;99.90
58566;DHT22;47788;46.172;-1.158;2022-09-01T05:33:07;20.90;99.90
58566;DHT22;47788;46.172;-1.158;2022-09-01T05:35:39;21.00;99.90
58566;DHT22;47788;46.172;-1.158;2022-09-01T05:38:10;21.00;99.90
58566;DHT22;47788;46.172;-1.158;2022-09-01T05:40:39;21.00;99.90
58566;DHT22;47788;46.172;-1.158;2022-09-01T05:43:06;21.00;99.90
58566;DHT22;47788;46.172;-1.158;2022-09-01T05:45:36;21.00;99.90
58566;DHT22;47788;46.172;-1.158;2022-09-01T05:48:01;21.00;99.90
58566;DHT22;47788;46.172;-1.158;2022-09-01T05:50:28;20.90;99.90
58566;DHT22;47788;46.172;-1.158;2022-09-01T05:52:53;20.90;99.90
58566;DHT22;47788;46.172;-1.158;2022-09-01T05:55:20;20.90;99.90
58566;DHT22;47788;46.172;-1.158;2022-09-01T05:57:47;20.90;99.90
58566;DHT22;47788;46.172;-1.158;2022-09-01T06:00:13;20.90;99.90
58566;DHT22;47788;46.172;-1.158;2022-09-01T06:02:40;20.90;99.90
58566;DHT22;47788;46.172;-1.158;2022-09-01T06:05:07;21.00;99.90
58566;DHT22;47788;46.172;-1.158;2022-09-01T06:07:33;20.90;99.90
58566;DHT22;47788;46.172;-1.158;2022-09-01T06:10:04;21.00;99.90
58566;DHT22;47788;46.172;-1.158;2022-09-01T06:12:30;21.00;99.90
58566;DHT22;47788;46.172;-1.158;2022-09-01T06:14:56;21.10;99.90
58566;DHT22;47788;46.172;-1.158;2022-09-01T06:17:24;21.10;99.90
58566;DHT22;47788;46.172;-1.158;2022-09-01T06:19:51;21.10;99.90
58566;DHT22;47788;46.172;-1.158;2022-09-01T06:22:19;21.10;99.90
58566;DHT22;47788;46.172;-1.158;2022-09-01T06:24:45;21.20;99.90
58566;DHT22;47788;46.172;-1.158;2022-09-01T06:27:12;21.20;99.90
58566;DHT22;47788;46.172;-1.158;2022-09-01T06:29:43;21.30;99.90
58566;DHT22;47788;46.172;-1.158;2022-09-01T06:32:10;21.30;99.90
58566;DHT22;47788;46.172;-1.158;2022-09-01T06:34:41;21.40;99.90
58566;DHT22;47788;46.172;-1.158;2022-09-01T06:37:09;21.50;99.90
58566;DHT22;47788;46.172;-1.158;2022-09-01T06:39:35;21.60;99.90
58566;DHT22;47788;46.172;-1.158;2022-09-01T06:42:01;21.60;99.90
58566;DHT22;47788;46.172;-1.158;2022-09-01T06:44:27;21.70;99.90
58566;DHT22;47788;46.172;-1.158;2022-09-01T06:46:57;21.70;99.90
58566;DHT22;47788;46.172;-1.158;2022-09-01T06:49:24;21.80;99.90
58566;DHT22;47788;46.172;-1.158;2022-09-01T06:52:00;21.90;99.90
58566;DHT22;47788;46.172;-1.158;2022-09-01T06:54:28;22.00;99.90
58566;DHT22;47788;46.172;-1.158;2022-09-01T06:56:59;22.00;99.90
58566;DHT22;47788;46.172;-1.158;2022-09-01T06:59:29;22.00;99.90
58566;DHT22;47788;46.172;-1.158;2022-09-01T07:01:56;22.00;99.90
58566;DHT22;47788;46.172;-1.158;2022-09-01T07:04:26;22.00;99.90
58566;DHT22;47788;46.172;-1.158;2022-09-01T07:06:54;21.90;99.90
58566;DHT22;47788;46.172;-1.158;2022-09-01T07:09:19;21.90;99.90
58566;DHT22;47788;46.172;-1.158;2022-09-01T07:11:45;21.90;99.90
58566;DHT22;47788;46.172;-1.158;2022-09-01T07:14:11;21.80;99.90
58566;DHT22;47788;46.172;-1.158;2022-09-01T07:16:40;21.80;99.90
58566;DHT22;47788;46.172;-1.158;2022-09-01T07:19:09;21.80;99.90
58566;DHT22;47788;46.172;-1.158;2022-09-01T07:21:40;21.70;99.90
58566;DHT22;47788;46.172;-1.158;2022-09-01T07:24:06;21.70;99.90
58566;DHT22;47788;46.172;-1.158;2022-09-01T07:26:33;21.70;99.90
58566;DHT22;47788;46.172;-1.158;2022-09-01T07:29:01;21.70;99.90
58566;DHT22;47788;46.172;-1.158;2022-09-01T07:31:33;21.70;99.90
58566;DHT22;47788;46.172;-1.158;2022-09-01T07:34:03;21.60;99.90
58566;DHT22;47788;46.172;-1.158;2022-09-01T07:36:29;21.60;99.90
58566;DHT22;47788;46.172;-1.158;2022-09-01T07:38:56;21.60;99.90
58566;DHT22;47788;46.172;-1.158;2022-09-01T07:41:23;21.70;99.90
58566;DHT22;47788;46.172;-1.158;2022-09-01T07:43:50;21.80;99.90
58566;DHT22;47788;46.172;-1.158;2022-09-01T07:46:18;21.80;99.90
58566;DHT22;47788;46.172;-1.158;2022-09-01T07:48:44;22.00;99.90
58566;DHT22;47788;46.172;-1.158;2022-09-01T07:51:11;22.10;99.90
58566;DHT22;47788;46.172;-1.158;2022-09-01T07:53:38;22.10;99.90
58566;DHT22;47788;46.172;-1.158;2022-09-01T07:56:09;22.10;99.90
58566;DHT22;47788;46.172;-1.158;2022-09-01T07:58:37;22.10;99.90
58566;DHT22;47788;46.172;-1.158;2022-09-01T08:01:11;22.20;99.90
58566;DHT22;47788;46.172;-1.158;2022-09-01T08:03:38;22.40;99.90
58566;DHT22;47788;46.172;-1.158;2022-09-01T08:06:07;22.50;99.90
58566;DHT22;47788;46.172;-1.158;2022-09-01T08:08:34;22.60;99.90
58566;DHT22;47788;46.172;-1.158;2022-09-01T08:11:00;22.70;99.90
58566;DHT22;47788;46.172;-1.158;2022-09-01T08:13:26;22.70;99.90
58566;DHT22;47788;46.172;-1.158;2022-09-01T08:15:52;22.80;99.90
58566;DHT22;47788;46.172;-1.158;2022-09-01T08:18:18;22.80;99.90
58566;DHT22;47788;46.172;-1.158;2022-09-01T08:20:44;22.90;99.90
58566;DHT22;47788;46.172;-1.158;2022-09-01T08:23:14;22.90;99.90
58566;DHT22;47788;46.172;-1.158;2022-09-01T08:25:41;22.80;99.90
58566;DHT22;47788;46.172;-1.158;2022-09-01T08:28:09;22.90;99.90
58566;DHT22;47788;46.172;-1.158;2022-09-01T08:30:40;23.10;99.90
58566;DHT22;47788;46.172;-1.158;2022-09-01T08:33:06;23.10;99.90
58566;DHT22;47788;46.172;-1.158;2022-09-01T08:35:38;23.20;99.90
58566;DHT22;47788;46.172;-1.158;2022-09-01T08:38:03;23.30;99.90
58566;DHT22;47788;46.172;-1.158;2022-09-01T08:40:29;23.30;99.90
58566;DHT22;47788;46.172;-1.158;2022-09-01T08:43:35;23.30;99.90
58566;DHT22;47788;46.172;-1.158;2022-09-01T08:46:13;23.40;99.90
58566;DHT22;47788;46.172;-1.158;2022-09-01T08:48:49;23.50;99.90
58566;DHT22;47788;46.172;-1.158;2022-09-01T08:51:31;23.60;99.90
58566;DHT22;47788;46.172;-1.158;2022-09-01T08:56:25;23.60;99.90
58566;DHT22;47788;46.172;-1.158;2022-09-01T08:58:51;23.60;99.90
58566;DHT22;47788;46.172;-1.158;2022-09-01T09:01:30;23.70;99.90
58566;DHT22;47788;46.172;-1.158;2022-09-01T09:04:12;23.80;99.90
58566;DHT22;47788;46.172;-1.158;2022-09-01T09:07:00;23.90;99.90
58566;DHT22;47788;46.172;-1.158;2022-09-01T09:09:46;24.10;99.90
58566;DHT22;47788;46.172;-1.158;2022-09-01T09:12:43;23.90;99.90
58566;DHT22;47788;46.172;-1.158;2022-09-01T09:15:36;23.90;99.90
58566;DHT22;47788;46.172;-1.158;2022-09-01T09:18:32;23.80;99.90
58566;DHT22;47788;46.172;-1.158;2022-09-01T09:21:17;23.80;99.90
58566;DHT22;47788;46.172;-1.158;2022-09-01T09:23:47;23.80;99.90
58566;DHT22;47788;46.172;-1.158;2022-09-01T09:26:14;23.90;99.90
58566;DHT22;47788;46.172;-1.158;2022-09-01T09:28:42;24.10;99.90
58566;DHT22;47788;46.172;-1.158;2022-09-01T09:31:43;24.20;99.90
58566;DHT22;47788;46.172;-1.158;2022-09-01T09:34:39;24.20;99.90
58566;DHT22;47788;46.172;-1.158;2022-09-01T09:37:27;24.30;99.90
58566;DHT22;47788;46.172;-1.158;2022-09-01T09:40:12;24.30;99.90
58566;DHT22;47788;46.172;-1.158;2022-09-01T09:42:59;24.40;99.90
58566;DHT22;47788;46.172;-1.158;2022-09-01T09:47:58;24.40;99.90
58566;DHT22;47788;46.172;-1.158;2022-09-01T09:52:51;24.40;99.90
58566;DHT22;47788;46.172;-1.158;2022-09-01T09:55:28;24.60;99.90
58566;DHT22;47788;46.172;-1.158;2022-09-01T09:58:00;24.60;99.90
58566;DHT22;47788;46.172;-1.158;2022-09-01T10:00:34;24.70;99.90
58566;DHT22;47788;46.172;-1.158;2022-09-01T10:03:02;24.70;99.90
58566;DHT22;47788;46.172;-1.158;2022-09-01T10:05:48;24.70;99.90
58566;DHT22;47788;46.172;-1.158;2022-09-01T10:11:03;24.80;99.90
58566;DHT22;47788;46.172;-1.158;2022-09-01T10:13:30;24.80;99.90
58566;DHT22;47788;46.172;-1.158;2022-09-01T10:16:06;25.00;99.90
58566;DHT22;47788;46.172;-1.158;2022-09-01T10:18:41;25.10;99.90
58566;DHT22;47788;46.172;-1.158;2022-09-01T10:21:16;25.10;99.90
58566;DHT22;47788;46.172;-1.158;2022-09-01T10:23:43;25.20;99.90
58566;DHT22;47788;46.172;-1.158;2022-09-01T10:29:00;25.50;99.90
58566;DHT22;47788;46.172;-1.158;2022-09-01T10:31:27;25.20;99.90
58566;DHT22;47788;46.172;-1.158;2022-09-01T10:33:54;25.20;99.90
58566;DHT22;47788;46.172;-1.158;2022-09-01T10:36:20;25.30;99.90
58566;DHT22;47788;46.172;-1.158;2022-09-01T10:38:47;25.50;99.90
58566;DHT22;47788;46.172;-1.158;2022-09-01T10:44:19;25.60;99.90
58566;DHT22;47788;46.172;-1.158;2022-09-01T10:46:46;25.60;99.90
58566;DHT22;47788;46.172;-1.158;2022-09-01T10:49:21;25.60;99.90
58566;DHT22;47788;46.172;-1.158;2022-09-01T10:52:03;25.70;99.90
58566;DHT22;47788;46.172;-1.158;2022-09-01T10:57:11;25.90;99.90
58566;DHT22;47788;46.172;-1.158;2022-09-01T10:59:46;25.80;99.90
58566;DHT22;47788;46.172;-1.158;2022-09-01T11:02:17;25.90;99.90
58566;DHT22;47788;46.172;-1.158;2022-09-01T11:15:38;26.30;99.90
58566;DHT22;47788;46.172;-1.158;2022-09-01T11:18:14;26.50;99.90
58566;DHT22;47788;46.172;-1.158;2022-09-01T11:20:41;26.50;99.90
58566;DHT22;47788;46.172;-1.158;2022-09-01T11:23:20;26.50;99.90
58566;DHT22;47788;46.172;-1.158;2022-09-01T11:25:54;26.70;99.90
58566;DHT22;47788;46.172;-1.158;2022-09-01T11:30:56;26.50;99.90
58566;DHT22;47788;46.172;-1.158;2022-09-01T11:34:13;26.40;99.90
58566;DHT22;47788;46.172;-1.158;2022-09-01T11:36:59;26.40;99.90
58566;DHT22;47788;46.172;-1.158;2022-09-01T11:39:35;26.30;99.90
58566;DHT22;47788;46.172;-1.158;2022-09-01T11:42:23;26.30;99.90
58566;DHT22;47788;46.172;-1.158;2022-09-01T11:47:31;26.40;99.90
58566;DHT22;47788;46.172;-1.158;2022-09-01T11:50:03;26.40;99.90
58566;DHT22;47788;46.172;-1.158;2022-09-01T11:52:32;26.60;99.90
58566;DHT22;47788;46.172;-1.158;2022-09-01T11:55:00;26.70;99.90
58566;DHT22;47788;46.172;-1.158;2022-09-01T11:57:32;26.80;99.90
58566;DHT22;47788;46.172;-1.158;2022-09-01T12:00:02;26.70;99.90
58566;DHT22;47788;46.172;-1.158;2022-09-01T12:02:33;26.70;99.90
58566;DHT22;47788;46.172;-1.158;2022-09-01T12:05:26;26.80;99.90
58566;DHT22;47788;46.172;-1.158;2022-09-01T12:07:52;26.60;99.90
58566;DHT22;47788;46.172;-1.158;2022-09-01T12:13:19;26.70;99.90
58566;DHT22;47788;46.172;-1.158;2022-09-01T12:15:53;26.80;99.90
58566;DHT22;47788;46.172;-1.158;2022-09-01T12:20:48;27.30;99.90
58566;DHT22;47788;46.172;-1.158;2022-09-01T12:23:29;27.50;99.90
58566;DHT22;47788;46.172;-1.158;2022-09-01T12:25:58;27.60;99.90
58566;DHT22;47788;46.172;-1.158;2022-09-01T12:28:29;27.50;99.90
58566;DHT22;47788;46.172;-1.158;2022-09-01T12:31:07;27.70;99.90
58566;DHT22;47788;46.172;-1.158;2022-09-01T12:33:36;27.60;99.90
58566;DHT22;47788;46.172;-1.158;2022-09-01T12:36:41;27.40;99.90
58566;DHT22;47788;46.172;-1.158;2022-09-01T12:41:43;27.50;99.90
58566;DHT22;47788;46.172;-1.158;2022-09-01T12:47:09;27.30;99.90
58566;DHT22;47788;46.172;-1.158;2022-09-01T12:54:49;27.80;99.90
58566;DHT22;47788;46.172;-1.158;2022-09-01T12:57:48;27.80;99.90
58566;DHT22;47788;46.172;-1.158;2022-09-01T13:03:15;28.10;98.50
58566;DHT22;47788;46.172;-1.158;2022-09-01T13:05:52;28.30;98.60
58566;DHT22;47788;46.172;-1.158;2022-09-01T13:08:21;28.30;97.20
58566;DHT22;47788;46.172;-1.158;2022-09-01T13:10:50;28.50;98.50
58566;DHT22;47788;46.172;-1.158;2022-09-01T13:13:17;28.70;98.00
58566;DHT22;47788;46.172;-1.158;2022-09-01T13:15:48;28.30;98.50
58566;DHT22;47788;46.172;-1.158;2022-09-01T13:18:16;28.30;98.50
58566;DHT22;47788;46.172;-1.158;2022-09-01T13:20:42;28.50;97.50
58566;DHT22;47788;46.172;-1.158;2022-09-01T13:23:09;28.60;97.30
58566;DHT22;47788;46.172;-1.158;2022-09-01T13:25:37;28.40;97.80
58566;DHT22;47788;46.172;-1.158;2022-09-01T13:28:05;28.50;97.00
58566;DHT22;47788;46.172;-1.158;2022-09-01T13:30:33;28.80;97.00
58566;DHT22;47788;46.172;-1.158;2022-09-01T13:32:59;29.20;96.30
58566;DHT22;47788;46.172;-1.158;2022-09-01T13:35:24;29.20;95.70
58566;DHT22;47788;46.172;-1.158;2022-09-01T13:37:50;29.30;95.90
58566;DHT22;47788;46.172;-1.158;2022-09-01T13:40:18;29.40;94.30
58566;DHT22;47788;46.172;-1.158;2022-09-01T13:42:49;29.30;94.50
58566;DHT22;47788;46.172;-1.158;2022-09-01T13:45:17;29.40;94.10
58566;DHT22;47788;46.172;-1.158;2022-09-01T13:47:45;29.70;93.30
58566;DHT22;47788;46.172;-1.158;2022-09-01T13:50:13;29.70;92.10
58566;DHT22;47788;46.172;-1.158;2022-09-01T13:52:42;29.70;91.50
58566;DHT22;47788;46.172;-1.158;2022-09-01T13:55:15;29.80;91.00
58566;DHT22;47788;46.172;-1.158;2022-09-01T13:57:41;29.90;91.10
58566;DHT22;47788;46.172;-1.158;2022-09-01T14:00:19;30.00;91.10
58566;DHT22;47788;46.172;-1.158;2022-09-01T14:02:47;30.50;91.40
58566;DHT22;47788;46.172;-1.158;2022-09-01T14:05:47;31.20;91.60
58566;DHT22;47788;46.172;-1.158;2022-09-01T14:08:07;31.90;90.70
58566;DHT22;47788;46.172;-1.158;2022-09-01T14:10:37;31.90;91.70
58566;DHT22;47788;46.172;-1.158;2022-09-01T14:13:03;31.60;92.20
58566;DHT22;47788;46.172;-1.158;2022-09-01T14:15:29;31.90;92.20
58566;DHT22;47788;46.172;-1.158;2022-09-01T14:17:56;32.70;91.60
58566;DHT22;47788;46.172;-1.158;2022-09-01T14:20:27;33.20;91.20
58566;DHT22;47788;46.172;-1.158;2022-09-01T14:22:53;33.40;90.30
58566;DHT22;47788;46.172;-1.158;2022-09-01T14:25:20;34.00;87.70
58566;DHT22;47788;46.172;-1.158;2022-09-01T14:27:46;35.10;87.90
58566;DHT22;47788;46.172;-1.158;2022-09-01T14:30:19;35.90;84.60
58566;DHT22;47788;46.172;-1.158;2022-09-01T14:32:45;37.20;79.60
58566;DHT22;47788;46.172;-1.158;2022-09-01T14:35:12;37.30;80.00
58566;DHT22;47788;46.172;-1.158;2022-09-01T14:37:39;37.70;80.60
58566;DHT22;47788;46.172;-1.158;2022-09-01T14:40:06;37.50;79.70
58566;DHT22;47788;46.172;-1.158;2022-09-01T14:42:32;37.80;79.90
58566;DHT22;47788;46.172;-1.158;2022-09-01T14:44:58;38.60;78.90
58566;DHT22;47788;46.172;-1.158;2022-09-01T14:47:24;39.40;77.20
58566;DHT22;47788;46.172;-1.158;2022-09-01T14:49:53;39.90;76.00
58566;DHT22;47788;46.172;-1.158;2022-09-01T14:52:20;39.80;77.20
58566;DHT22;47788;46.172;-1.158;2022-09-01T14:54:46;39.70;75.90
58566;DHT22;47788;46.172;-1.158;2022-09-01T14:57:12;40.50;76.90
58566;DHT22;47788;46.172;-1.158;2022-09-01T14:59:39;41.60;76.80
58566;DHT22;47788;46.172;-1.158;2022-09-01T15:02:07;40.40;76.70
58566;DHT22;47788;46.172;-1.158;2022-09-01T15:04:33;39.40;78.10
58566;DHT22;47788;46.172;-1.158;2022-09-01T15:06:59;36.70;80.70
58566;DHT22;47788;46.172;-1.158;2022-09-01T15:09:28;35.60;81.30
58566;DHT22;47788;46.172;-1.158;2022-09-01T15:11:54;35.30;82.50
58566;DHT22;47788;46.172;-1.158;2022-09-01T15:14:20;35.60;83.40
58566;DHT22;47788;46.172;-1.158;2022-09-01T15:16:45;34.80;85.30
58566;DHT22;47788;46.172;-1.158;2022-09-01T15:19:12;33.50;87.10
58566;DHT22;47788;46.172;-1.158;2022-09-01T15:21:39;32.30;89.80
58566;DHT22;47788;46.172;-1.158;2022-09-01T15:24:06;31.20;91.00
58566;DHT22;47788;46.172;-1.158;2022-09-01T15:26:33;30.50;92.20
58566;DHT22;47788;46.172;-1.158;2022-09-01T15:28:59;29.70;93.00
58566;DHT22;47788;46.172;-1.158;2022-09-01T15:31:27;29.10;94.10
58566;DHT22;47788;46.172;-1.158;2022-09-01T15:33:56;29.10;94.80
58566;DHT22;47788;46.172;-1.158;2022-09-01T15:36:23;29.30;94.90
58566;DHT22;47788;46.172;-1.158;2022-09-01T15:38:50;30.50;93.60
58566;DHT22;47788;46.172;-1.158;2022-09-01T15:41:27;31.50;92.80
58566;DHT22;47788;46.172;-1.158;2022-09-01T15:43:53;33.20;91.10
58566;DHT22;47788;46.172;-1.158;2022-09-01T15:46:20;32.70;90.50
58566;DHT22;47788;46.172;-1.158;2022-09-01T15:48:46;31.90;91.30
58566;DHT22;47788;46.172;-1.158;2022-09-01T15:53:48;30.20;93.20
58566;DHT22;47788;46.172;-1.158;2022-09-01T15:56:14;29.40;94.10
58566;DHT22;47788;46.172;-1.158;2022-09-01T15:58:42;28.70;95.20
58566;DHT22;47788;46.172;-1.158;2022-09-01T16:01:08;28.40;95.30
58566;DHT22;47788;46.172;-1.158;2022-09-01T16:03:34;28.30;95.90
58566;DHT22;47788;46.172;-1.158;2022-09-01T16:06:00;28.00;96.30
58566;DHT22;47788;46.172;-1.158;2022-09-01T16:08:26;27.40;97.60
58566;DHT22;47788;46.172;-1.158;2022-09-01T16:10:52;27.10;98.40
58566;DHT22;47788;46.172;-1.158;2022-09-01T16:13:19;26.90;99.00
58566;DHT22;47788;46.172;-1.158;2022-09-01T16:15:52;26.70;99.60
58566;DHT22;47788;46.172;-1.158;2022-09-01T16:21:19;25.90;99.90
58566;DHT22;47788;46.172;-1.158;2022-09-01T16:23:49;25.70;99.90
58566;DHT22;47788;46.172;-1.158;2022-09-01T16:26:21;25.60;99.90
58566;DHT22;47788;46.172;-1.158;2022-09-01T16:28:50;25.60;99.90
58566;DHT22;47788;46.172;-1.158;2022-09-01T16:31:23;25.50;99.90
58566;DHT22;47788;46.172;-1.158;2022-09-01T16:33:53;25.50;99.90
58566;DHT22;47788;46.172;-1.158;2022-09-01T16:47:43;25.20;99.90